Time;durP1;ratioP1;P1;durP2;ratioP2;P2;SDS_P1;SDS_P2;PMS_P1;PMS_P2;Temp;Humidity;BMP_temperature;BMP_pressure;BME280_temperature;BME280_humidity;BME280_pressure;Samples;Min_cycle;Max_cycle;Signal;HPM_P1;HPM_P2
2023/05/26 07:23:06;;;;;;;22.08;6.03;;;;;;;-145.79;57.25;78888.84;5315916;27;20355;-83
2023/05/26 07:25:38;;;;;;;19.52;6.50;;;;;;;-145.79;58.15;78848.56;5326333;28;20487;-85
2023/05/26 07:28:09;;;;;;;22.45;7.55;;;;;;;-145.79;56.13;78859.16;5324834;28;20024;-84
2023/05/26 07:30:41;;;;;;;21.83;6.95;;;;;;;-145.79;55.23;78876.13;5306485;28;20016;-81
2023/05/26 07:33:12;;;;;;;23.67;8.10;;;;;;;-145.79;55.50;78874.00;5304951;28;20111;-81
2023/05/26 07:35:43;;;;;;;21.95;8.48;;;;;;;-145.79;54.83;78895.22;5310959;28;20048;-82
2023/05/26 07:38:15;;;;;;;22.48;7.40;;;;;;;-145.79;54.68;78867.66;5313936;28;20024;-81
2023/05/26 07:40:46;;;;;;;19.05;6.78;;;;;;;-145.79;55.09;78854.94;5312873;28;20018;-81
2023/05/26 07:43:17;;;;;;;19.95;6.22;;;;;;;-145.79;54.80;78854.94;5323421;28;20035;-81
2023/05/26 07:45:49;;;;;;;20.27;6.95;;;;;;;-145.79;54.97;78857.06;5316069;28;20336;-81
2023/05/26 07:48:26;;;;;;;18.00;6.22;;;;;;;-145.79;54.45;78831.59;5301213;28;20094;-81
2023/05/26 07:50:57;;;;;;;20.25;7.20;;;;;;;-145.79;53.53;78846.44;5300989;28;20032;-81
2023/05/26 07:53:29;;;;;;;17.60;7.25;;;;;;;-145.79;53.80;78840.09;5312123;28;20030;-81
2023/05/26 07:56:01;;;;;;;16.30;5.90;;;;;;;-145.79;52.13;78859.16;5297068;28;20102;-83
2023/05/26 07:58:32;;;;;;;24.02;7.65;;;;;;;-145.79;53.22;78844.31;5320253;28;20034;-83
2023/05/26 08:01:06;;;;;;;20.98;6.95;;;;;;;-145.79;52.97;78833.72;5311436;28;20024;-84
2023/05/26 08:03:38;;;;;;;19.05;6.25;;;;;;;-145.79;51.77;78831.59;5321949;28;20031;-84
2023/05/26 08:06:09;;;;;;;16.30;6.15;;;;;;;-145.79;51.83;78833.72;5321926;28;20423;-85
2023/05/26 08:08:40;;;;;;;20.23;7.47;;;;;;;-145.79;53.00;78812.53;5323287;28;20103;-82
2023/05/26 08:11:11;;;;;;;17.27;6.25;;;;;;;-145.79;51.77;78799.81;5306557;28;20033;-83
2023/05/26 08:13:43;;;;;;;17.80;6.47;;;;;;;-145.79;51.25;78804.03;5311974;28;20021;-82
2023/05/26 08:16:15;;;;;;;19.98;7.57;;;;;;;-145.79;52.99;78789.19;5302263;28;20036;-81
2023/05/26 08:18:47;;;;;;;16.60;7.05;;;;;;;-145.79;51.57;78774.34;5307806;28;20020;-81
2023/05/26 08:21:18;;;;;;;20.83;6.45;;;;;;;-145.79;51.64;78776.47;5327512;28;20041;-84
2023/05/26 08:23:49;;;;;;;19.30;6.93;;;;;;;-145.79;50.60;78774.34;5343132;28;20035;-81
2023/05/26 08:26:21;;;;;;;18.77;7.13;;;;;;;-145.79;50.23;78755.28;5340995;28;20019;-83
2023/05/26 08:28:53;;;;;;;16.65;5.38;;;;;;;-145.79;50.22;78742.53;5335487;28;20039;-82
2023/05/26 08:31:25;;;;;;;18.95;6.75;;;;;;;-145.79;50.70;78738.31;5324406;28;20030;-82
2023/05/26 08:33:56;;;;;;;19.58;7.43;;;;;;;-145.79;51.04;78734.06;5333019;28;20024;-81
2023/05/26 08:36:27;;;;;;;21.55;7.30;;;;;;;-145.79;49.97;78734.06;5328322;28;20502;-83
2023/05/26 08:38:59;;;;;;;22.85;6.70;;;;;;;-145.79;49.25;78734.06;5331039;28;20496;-81
2023/05/26 08:41:42;;;;;;;17.73;6.43;;;;;;;-145.79;49.53;78729.81;5330525;28;20023;-81
2023/05/26 08:44:16;;;;;;;25.92;14.52;;;;;;;-145.79;48.71;78751.03;5330347;28;20439;-81
2023/05/26 08:46:55;;;;;;;22.75;7.57;;;;;;;-145.79;49.68;78742.53;5323254;28;20016;-81
2023/05/26 08:49:31;;;;;;;17.98;5.85;;;;;;;-145.79;48.98;78714.97;5319297;28;20024;-81
2023/05/26 08:52:13;;;;;;;22.02;7.65;;;;;;;-145.79;49.37;78685.31;5328332;28;20023;-77
2023/05/26 08:54:45;;;;;;;15.77;6.32;;;;;;;-145.79;47.84;78691.66;5330086;28;20031;-78
2023/05/26 08:57:18;;;;;;;20.42;8.13;;;;;;;-145.79;47.91;78676.81;5326461;28;20039;-79
2023/05/26 08:59:52;;;;;;;17.73;6.10;;;;;;;-145.79;47.57;78691.66;5328103;28;20035;-81
2023/05/26 09:02:23;;;;;;;22.13;7.03;;;;;;;-145.79;48.15;78661.97;5315931;28;20039;-80
2023/05/26 09:04:55;;;;;;;20.85;6.85;;;;;;;-145.79;47.25;78653.50;5313377;28;20036;-84
2023/05/26 09:07:26;;;;;;;15.13;6.30;;;;;;;-145.79;47.44;78659.84;5296151;28;20031;-82
2023/05/26 09:10:26;;;;;;;15.65;5.90;;;;;;;-145.79;48.01;78642.91;5322292;28;20406;-81
2023/05/26 09:13:05;;;;;;;15.07;5.57;;;;;;;-145.79;47.23;78634.41;5319675;28;20383;-80
2023/05/26 09:15:37;;;;;;;23.17;5.72;;;;;;;-145.79;47.46;78636.53;5323188;28;20115;-80
2023/05/26 09:18:11;;;;;;;22.52;7.38;;;;;;;-145.79;46.58;78628.06;5323085;28;20611;-81
2023/05/26 09:20:47;;;;;;;17.45;7.32;;;;;;;-145.79;46.12;78606.84;5320154;28;20024;-79
2023/05/26 09:23:23;;;;;;;17.20;6.22;;;;;;;-145.79;44.65;78611.09;5326990;28;20015;-80
2023/05/26 09:25:56;;;;;;;17.67;6.55;;;;;;;-145.79;46.12;78606.84;5318767;28;20133;-81
2023/05/26 09:28:27;;;;;;;12.27;4.70;;;;;;;-145.79;45.09;78611.09;5302997;28;20446;-80
2023/05/26 09:30:59;;;;;;;12.57;4.93;;;;;;;-145.79;44.49;78602.59;5305864;28;20028;-82
2023/05/26 09:33:30;;;;;;;19.77;6.35;;;;;;;-145.79;42.80;78623.81;5295779;28;20031;-80
2023/05/26 09:36:02;;;;;;;15.00;6.07;;;;;;;-145.79;43.38;78594.13;5307207;28;20072;-79
2023/05/26 09:38:33;;;;;;;20.38;6.60;;;;;;;-145.79;43.84;78589.88;5306704;28;20020;-80
2023/05/26 09:41:05;;;;;;;18.65;7.82;;;;;;;-145.79;44.98;78598.38;5306886;28;20020;-81
2023/05/26 09:43:36;;;;;;;13.57;5.40;;;;;;;-145.79;44.98;78572.94;5311877;28;20024;-80
2023/05/26 09:46:20;;;;;;;21.35;6.70;;;;;;;-145.79;44.95;78585.66;5333131;28;20028;-79
2023/05/26 09:48:51;;;;;;;18.88;6.90;;;;;;;-145.79;45.48;78579.28;5333218;28;20087;-81
2023/05/26 09:51:30;;;;;;;16.85;5.28;;;;;;;-145.79;44.73;78581.41;5323519;28;20110;-81
2023/05/26 09:54:02;;;;;;;13.25;5.75;;;;;;;-145.79;44.23;78585.66;5304799;28;20024;-81
2023/05/26 09:56:34;;;;;;;15.57;6.43;;;;;;;-145.79;44.54;78555.97;5307019;28;20012;-79
2023/05/26 09:59:08;;;;;;;15.75;6.60;;;;;;;-145.79;43.14;78560.19;5305895;28;20368;-80
2023/05/26 10:01:40;;;;;;;17.40;5.60;;;;;;;-145.79;43.04;78551.72;5309477;28;20375;-81
2023/05/26 10:04:15;;;;;;;17.75;6.13;;;;;;;-145.79;43.53;78530.53;5305543;28;20028;-82
2023/05/26 10:06:49;;;;;;;16.20;5.93;;;;;;;-145.79;42.85;78511.44;5305829;28;20103;-82
2023/05/26 10:09:22;;;;;;;16.33;6.57;;;;;;;-145.79;41.75;78496.59;5305299;28;20022;-81
2023/05/26 10:11:58;;;;;;;11.68;5.53;;;;;;;-145.79;42.46;78494.47;5304357;28;20097;-79
2023/05/26 10:14:29;;;;;;;9.80;5.03;;;;;;;-145.79;41.67;78479.63;5309942;28;20023;-78
2023/05/26 10:17:03;;;;;;;13.68;6.13;;;;;;;-145.79;41.59;78462.66;5306571;28;20043;-78
2023/05/26 10:19:34;;;;;;;16.10;5.20;;;;;;;-145.79;40.99;78460.56;5304118;28;20032;-79
2023/05/26 10:22:16;;;;;;;13.82;4.55;;;;;;;-145.79;41.83;78447.84;5310291;28;20043;-79
2023/05/26 10:24:57;;;;;;;15.52;4.65;;;;;;;-145.79;39.54;78445.72;5297603;28;20027;-79
2023/05/26 10:27:36;;;;;;;11.88;5.30;;;;;;;-145.79;40.17;78454.19;5309403;28;20024;-76
2023/05/26 10:30:12;;;;;;;15.77;5.65;;;;;;;-145.79;40.73;78441.47;5304553;28;20061;-80
2023/05/26 10:32:47;;;;;;;13.95;5.13;;;;;;;-145.79;40.17;78441.47;5313105;28;20015;-79
2023/05/26 10:35:26;;;;;;;16.33;5.72;;;;;;;-145.79;40.42;78433.00;5315574;28;20031;-80
2023/05/26 10:38:01;;;;;;;16.17;6.40;;;;;;;-145.79;41.20;78418.16;5305383;28;20110;-80
2023/05/26 10:40:32;;;;;;;10.75;4.95;;;;;;;-145.79;41.36;78424.50;5304934;28;20058;-78
2023/05/26 10:43:20;;;;;;;15.13;5.43;;;;;;;-145.79;39.62;78394.81;5302819;28;20066;-80
2023/05/26 10:45:57;;;;;;;13.70;5.28;;;;;;;-145.79;40.21;78399.06;5297158;28;20780;-79
2023/05/26 10:48:54;;;;;;;17.13;6.53;;;;;;;-145.79;39.98;78396.94;5284258;28;20099;-80
2023/05/26 10:51:27;;;;;;;14.40;5.65;;;;;;;-145.79;40.54;78384.22;5321953;28;20034;-81
2023/05/26 10:54:15;;;;;;;12.10;5.45;;;;;;;-145.79;39.52;78360.91;5309654;28;20016;-81
2023/05/26 10:56:49;;;;;;;13.40;5.93;;;;;;;-145.79;39.11;78358.78;5304519;28;20039;-80
2023/05/26 10:59:22;;;;;;;10.55;5.38;;;;;;;-145.79;39.45;78343.94;5305076;28;20042;-79
2023/05/26 11:01:53;;;;;;;14.13;5.90;;;;;;;-145.79;39.08;78350.31;5304120;28;20081;-80
2023/05/26 11:04:39;;;;;;;17.80;11.27;;;;;;;-145.79;39.25;78326.97;5303371;28;20035;-77
2023/05/26 11:07:20;;;;;;;15.48;6.00;;;;;;;-145.79;38.89;78314.25;5303689;28;20099;-80
2023/05/26 11:10:01;;;;;;;12.00;5.05;;;;;;;-145.79;38.32;78305.78;5304812;28;20024;-80
2023/05/26 11:12:46;;;;;;;13.75;5.05;;;;;;;-145.79;37.52;78301.53;5303558;28;20053;-80
2023/05/26 11:15:28;;;;;;;13.68;5.03;;;;;;;-145.79;38.33;78310.03;5303582;28;20028;-79
2023/05/26 11:18:05;;;;;;;16.23;5.50;;;;;;;-145.79;38.15;78301.53;5323603;28;20027;-80
2023/05/26 11:20:36;;;;;;;17.60;5.90;;;;;;;-145.79;37.06;78297.31;5303030;28;20034;-81
2023/05/26 11:23:08;;;;;;;14.63;5.72;;;;;;;-145.79;36.35;78310.03;5304745;28;20348;-82
2023/05/26 11:25:46;;;;;;;13.18;5.53;;;;;;;-145.79;37.44;78273.97;5303363;28;20070;-80
2023/05/26 11:28:20;;;;;;;17.30;6.65;;;;;;;-145.79;36.43;78282.47;5308399;28;20497;-77
2023/05/26 11:30:52;;;;;;;9.50;4.43;;;;;;;-145.79;35.83;78257.03;5302668;28;20471;-76
2023/05/26 11:33:23;;;;;;;11.10;4.80;;;;;;;-145.79;35.06;78240.06;5302152;28;20043;-78
2023/05/26 11:35:54;;;;;;;14.02;5.40;;;;;;;-145.79;35.56;78225.22;5305339;28;20071;-74
2023/05/26 11:38:26;;;;;;;13.75;5.53;;;;;;;-145.79;36.11;78216.72;5310499;28;20040;-75
2023/05/26 11:40:58;;;;;;;17.48;6.00;;;;;;;-145.79;35.72;78225.22;5323613;28;20034;-75
2023/05/26 11:43:29;;;;;;;9.93;4.43;;;;;;;-145.79;35.37;78212.50;5324005;28;20481;-78
2023/05/26 11:46:03;;;;;;;20.92;6.30;;;;;;;-145.79;35.71;78212.50;5303923;28;20032;-78
2023/05/26 11:48:42;;;;;;;10.40;4.68;;;;;;;-145.79;34.80;78204.00;5303325;28;20475;-82
2023/05/26 11:51:17;;;;;;;15.75;5.20;;;;;;;-145.79;35.34;78174.34;5307975;28;20131;-80
2023/05/26 11:53:54;;;;;;;14.68;6.10;;;;;;;-145.79;35.22;78180.69;5295818;28;20029;-82
2023/05/26 11:56:33;;;;;;;12.60;5.15;;;;;;;-145.79;34.72;78167.97;5282463;28;20138;-82
2023/05/26 11:59:04;;;;;;;12.45;5.05;;;;;;;-145.79;35.38;78151.00;5282516;28;20032;-79
2023/05/26 12:01:36;;;;;;;10.77;5.28;;;;;;;-145.79;35.22;78144.66;5301348;28;20036;-79
2023/05/26 12:04:07;;;;;;;19.20;5.85;;;;;;;-145.79;35.24;78144.66;5302463;28;20090;-78
2023/05/26 12:06:41;;;;;;;12.57;4.93;;;;;;;-145.79;35.48;78110.72;5302011;28;20434;-76
2023/05/26 12:09:22;;;;;;;17.10;5.78;;;;;;;-145.79;34.83;78114.97;5304741;28;20032;-77
2023/05/26 12:11:54;;;;;;;13.63;6.97;;;;;;;-145.79;35.31;78119.22;5309689;28;20024;-75
2023/05/26 12:14:26;;;;;;;14.27;4.80;;;;;;;-145.79;34.69;78110.72;5304066;28;20035;-75
2023/05/26 12:16:57;;;;;;;13.35;5.45;;;;;;;-145.79;34.58;78091.66;5305780;28;20094;-77
2023/05/26 12:19:30;;;;;;;15.52;4.57;;;;;;;-145.79;33.93;78089.53;5306103;28;20172;-77
2023/05/26 12:22:02;;;;;;;11.27;4.38;;;;;;;-145.79;32.52;78102.25;5318352;28;20406;-78
2023/05/26 12:24:35;;;;;;;7.93;3.95;;;;;;;-145.79;32.68;78085.28;5327112;28;20020;-77
2023/05/26 12:27:08;;;;;;;12.00;4.85;;;;;;;-145.79;33.59;78066.22;5319705;28;20020;-75
2023/05/26 12:29:41;;;;;;;13.80;5.28;;;;;;;-145.79;34.01;78064.09;5311214;28;20103;-77
2023/05/26 12:32:13;;;;;;;10.45;4.95;;;;;;;-145.79;33.32;78066.22;5326998;28;20035;-79
2023/05/26 12:34:44;;;;;;;16.73;5.60;;;;;;;-145.79;33.35;78059.84;5316879;28;20117;-79
2023/05/26 12:37:16;;;;;;;12.90;4.65;;;;;;;-145.79;33.44;78055.63;5327008;28;20024;-79
2023/05/26 12:39:47;;;;;;;11.40;4.25;;;;;;;-145.79;33.33;78034.41;5324764;28;20051;-80
2023/05/26 12:42:18;;;;;;;12.15;4.43;;;;;;;-145.79;32.56;78021.69;5305241;28;20368;-79
2023/05/26 12:44:49;;;;;;;19.73;14.35;;;;;;;-145.79;32.40;78028.06;5305541;28;20027;-78
2023/05/26 12:47:21;;;;;;;12.10;4.72;;;;;;;-145.79;31.94;78032.28;5308255;28;20051;-79
2023/05/26 12:49:53;;;;;;;10.65;4.30;;;;;;;-145.79;32.00;78030.19;5306442;28;20498;-77
2023/05/26 12:52:24;;;;;;;10.80;4.10;;;;;;;-145.79;31.41;78015.34;5323842;28;20383;-77
2023/05/26 12:54:56;;;;;;;13.40;4.22;;;;;;;-145.79;32.06;77996.25;5305789;28;20113;-77
2023/05/26 12:57:30;;;;;;;13.13;4.20;;;;;;;-145.79;31.19;77983.53;5304540;28;20060;-78
2023/05/26 13:00:02;;;;;;;13.80;4.67;;;;;;;-145.79;31.01;77989.91;5305574;28;20025;-74
2023/05/26 13:02:36;;;;;;;9.98;3.97;;;;;;;-145.79;31.40;77970.81;5304277;28;20345;-73
2023/05/26 13:05:07;;;;;;;9.45;4.43;;;;;;;-145.79;30.46;77966.56;5305408;28;20368;-78
2023/05/26 13:07:39;;;;;;;11.65;4.65;;;;;;;-145.79;29.97;77962.34;5306518;28;20024;-69
2023/05/26 13:10:10;;;;;;;10.75;3.95;;;;;;;-145.79;30.47;77953.84;5314975;28;20103;-71
2023/05/26 13:12:42;;;;;;;14.00;6.13;;;;;;;-145.79;30.54;77949.63;5312297;28;20032;-73
2023/05/26 13:15:14;;;;;;;12.15;4.50;;;;;;;-145.79;30.48;77919.94;5305122;28;20099;-74
2023/05/26 13:17:46;;;;;;;11.88;3.60;;;;;;;-145.79;30.88;77915.69;5304222;28;20020;-75
2023/05/26 13:20:17;;;;;;;10.93;3.95;;;;;;;-145.79;30.39;77898.75;5305151;28;20083;-75
2023/05/26 13:22:49;;;;;;;7.60;3.40;;;;;;;-145.79;29.68;77881.78;5304251;28;20039;-76
2023/05/26 13:25:20;;;;;;;12.90;4.95;;;;;;;-145.79;30.14;77886.00;5303220;28;20487;-72
2023/05/26 13:27:51;;;;;;;9.43;4.15;;;;;;;-145.79;30.90;77877.53;5304935;28;20032;-77
2023/05/26 13:30:23;;;;;;;7.05;3.40;;;;;;;-145.79;29.55;77860.56;5304557;28;20028;-76
2023/05/26 13:32:56;;;;;;;9.30;3.83;;;;;;;-145.79;31.68;77847.84;5302725;28;20028;-73
2023/05/26 13:35:27;;;;;;;6.28;3.63;;;;;;;-145.79;33.57;77830.91;5305256;28;20032;-76
2023/05/26 13:37:59;;;;;;;9.93;4.28;;;;;;;-145.79;29.85;77837.25;5306954;28;20030;-76
2023/05/26 13:40:30;;;;;;;8.48;3.50;;;;;;;-145.79;30.06;77818.19;5303637;28;20027;-75
2023/05/26 13:43:01;;;;;;;10.10;4.65;;;;;;;-145.79;29.90;77818.19;5304221;28;20036;-76
2023/05/26 13:45:33;;;;;;;11.55;3.95;;;;;;;-145.79;30.96;77801.22;5313602;28;20536;-75
2023/05/26 13:48:04;;;;;;;14.20;4.68;;;;;;;-145.79;29.91;77796.97;5325348;28;20118;-75
2023/05/26 13:50:35;;;;;;;12.10;4.07;;;;;;;-145.79;30.00;77792.75;5325214;28;20057;-75
2023/05/26 13:53:07;;;;;;;13.82;4.15;;;;;;;-145.79;31.95;77777.91;5300097;28;20044;-76
2023/05/26 13:55:41;;;;;;;11.40;3.53;;;;;;;-145.79;30.30;77756.72;5311400;28;20026;-79
2023/05/26 13:58:13;;;;;;;12.63;4.45;;;;;;;-145.79;29.45;77773.66;5326171;28;20027;-78
2023/05/26 14:00:44;;;;;;;10.15;4.45;;;;;;;-145.79;29.74;77744.00;5324823;28;20027;-75
2023/05/26 14:03:24;;;;;;;7.28;3.55;;;;;;;-145.79;30.46;77716.44;5325460;28;20112;-72
2023/05/26 14:05:56;;;;;;;7.05;3.40;;;;;;;-145.79;29.59;77735.50;5323456;28;20031;-72
2023/05/26 14:08:27;;;;;;;13.50;5.28;;;;;;;-145.79;30.46;77697.34;5321293;28;20017;-73
2023/05/26 14:10:58;;;;;;;10.38;4.20;;;;;;;-145.79;29.81;77716.44;5303498;28;20205;-70
2023/05/26 14:13:30;;;;;;;12.65;4.68;;;;;;;-145.79;29.30;77722.78;5303049;28;20055;-71
2023/05/26 14:16:01;;;;;;;12.30;4.25;;;;;;;-145.79;29.15;77737.63;5312857;28;20088;-75
2023/05/26 14:18:33;;;;;;;10.15;4.97;;;;;;;-145.79;29.02;77724.91;5303201;28;20039;-76
2023/05/26 14:21:04;;;;;;;12.77;4.47;;;;;;;-145.79;29.44;77712.19;5306396;28;20092;-73
2023/05/26 14:23:36;;;;;;;11.88;4.43;;;;;;;-145.79;29.82;77686.75;5304037;28;20031;-73
2023/05/26 14:26:08;;;;;;;11.18;4.82;;;;;;;-145.79;30.68;77684.63;5302793;28;20074;-75
2023/05/26 14:28:40;;;;;;;9.18;4.63;;;;;;;-145.79;30.20;77688.88;5302820;28;20055;-74
2023/05/26 14:31:13;;;;;;;11.80;5.47;;;;;;;-145.79;30.82;77661.31;5290034;28;20043;-73
2023/05/26 14:33:45;;;;;;;10.27;4.07;;;;;;;-145.79;30.48;77657.06;5324537;28;20039;-72
2023/05/26 14:36:16;;;;;;;13.50;5.05;;;;;;;-145.79;30.24;77682.50;5323652;28;20020;-72
2023/05/26 14:38:48;;;;;;;12.75;5.10;;;;;;;-145.79;29.81;77669.78;5316191;28;20043;-72
2023/05/26 14:41:20;;;;;;;11.40;4.03;;;;;;;-145.79;29.60;77705.84;5308846;28;20034;-73
2023/05/26 14:43:51;;;;;;;16.88;4.82;;;;;;;-145.79;29.52;77678.28;5306831;28;20032;-74
2023/05/26 14:46:25;;;;;;;8.88;4.45;;;;;;;-145.79;30.47;77682.50;5306538;28;20039;-71
2023/05/26 14:48:57;;;;;;;18.20;8.82;;;;;;;-145.79;30.56;77674.03;5311649;28;20065;-73
2023/05/26 14:51:29;;;;;;;10.18;4.20;;;;;;;-145.79;30.22;77674.03;5320613;28;20076;-74
2023/05/26 14:54:00;;;;;;;11.20;4.35;;;;;;;-145.79;30.76;77680.38;5302440;28;20050;-73
2023/05/26 14:56:32;;;;;;;10.10;4.00;;;;;;;-145.79;30.37;77682.50;5302070;28;20486;-73
2023/05/26 14:59:03;;;;;;;9.95;4.13;;;;;;;-145.79;30.74;77703.72;5313776;28;20106;-72
2023/05/26 15:01:37;;;;;;;11.55;4.53;;;;;;;-145.79;31.14;77699.47;5302638;28;20074;-72
2023/05/26 15:04:10;;;;;;;12.70;4.90;;;;;;;-145.79;32.82;77691.00;5304232;28;20031;-72
2023/05/26 15:06:42;;;;;;;11.05;4.20;;;;;;;-145.79;30.67;77710.06;5281438;28;20078;-74
2023/05/26 15:09:13;;;;;;;8.00;4.00;;;;;;;-145.79;31.22;77712.19;5281658;28;20059;-74
2023/05/26 15:11:44;;;;;;;13.30;4.35;;;;;;;-145.79;33.30;77707.94;5300972;28;20438;-74
2023/05/26 15:14:16;;;;;;;11.73;4.40;;;;;;;-145.79;32.34;77701.59;5321769;28;20035;-73
2023/05/26 15:16:47;;;;;;;8.25;4.03;;;;;;;-145.79;31.85;77707.94;5301471;28;20542;-73
2023/05/26 15:19:18;;;;;;;12.93;4.75;;;;;;;-145.79;31.32;77712.19;5302337;28;20073;-72
2023/05/26 15:21:50;;;;;;;12.38;3.25;;;;;;;-145.79;30.78;77701.59;5302227;28;20079;-78
2023/05/26 15:24:21;;;;;;;8.77;3.47;;;;;;;-145.79;30.58;77707.94;5319808;28;20076;-75
2023/05/26 15:26:52;;;;;;;8.00;3.70;;;;;;;-145.79;31.12;77699.47;5318921;28;20083;-74
2023/05/26 15:29:24;;;;;;;11.07;4.53;;;;;;;-145.79;30.63;77731.28;5302372;28;20081;-74
2023/05/26 15:31:55;;;;;;;14.35;4.85;;;;;;;-145.79;30.31;77729.16;5305028;28;20028;-74
2023/05/26 15:34:26;;;;;;;7.65;2.97;;;;;;;-145.79;32.21;77703.72;5302118;28;20028;-73
2023/05/26 15:36:57;;;;;;;19.70;11.13;;;;;;;-145.79;30.40;77712.19;5302289;28;20535;-74
2023/05/26 15:39:29;;;;;;;16.52;9.65;;;;;;;-145.79;32.54;77724.91;5307393;28;20024;-73
2023/05/26 15:42:01;;;;;;;10.65;4.15;;;;;;;-145.79;31.75;77720.66;5305317;28;20040;-73
2023/05/26 15:44:32;;;;;;;8.85;3.33;;;;;;;-145.79;31.83;77746.09;5305449;28;20027;-74
2023/05/26 15:47:05;;;;;;;11.82;3.58;;;;;;;-145.79;32.07;77733.38;5305258;28;20483;-74
2023/05/26 15:49:36;;;;;;;8.55;4.07;;;;;;;-145.79;33.01;77746.09;5306284;28;20027;-72
2023/05/26 15:52:07;;;;;;;11.38;4.70;;;;;;;-145.79;32.67;77741.88;5307355;28;20024;-73
2023/05/26 15:54:38;;;;;;;11.15;4.78;;;;;;;-145.79;31.88;77746.09;5305964;28;20070;-73
2023/05/26 15:57:10;;;;;;;9.77;3.60;;;;;;;-145.79;31.33;77756.72;5306076;28;20043;-73
2023/05/26 15:59:41;;;;;;;10.77;3.75;;;;;;;-145.79;32.76;77750.34;5306078;28;20027;-73
2023/05/26 16:02:13;;;;;;;9.20;3.97;;;;;;;-145.79;31.83;77750.34;5311143;28;20027;-73
2023/05/26 16:04:44;;;;;;;9.38;3.90;;;;;;;-145.79;33.88;77750.34;5326674;28;20032;-75
2023/05/26 16:07:16;;;;;;;9.43;3.80;;;;;;;-145.79;33.10;77750.34;5324818;28;20024;-75
2023/05/26 16:09:47;;;;;;;11.07;4.63;;;;;;;-145.79;33.75;77744.00;5316102;28;20095;-74
2023/05/26 16:12:18;;;;;;;8.70;3.53;;;;;;;-145.79;32.81;77750.34;5305597;28;20047;-72
2023/05/26 16:14:50;;;;;;;9.20;4.28;;;;;;;-145.79;33.29;77746.09;5304373;28;20016;-74
2023/05/26 16:17:21;;;;;;;8.68;4.20;;;;;;;-145.79;32.94;77758.81;5305524;28;20027;-73
2023/05/26 16:19:52;;;;;;;9.88;4.60;;;;;;;-145.79;33.24;77758.81;5308800;28;20407;-74
2023/05/26 16:22:23;;;;;;;8.15;3.22;;;;;;;-145.79;33.77;77737.63;5321226;28;20100;-75
2023/05/26 16:24:55;;;;;;;11.52;3.85;;;;;;;-145.79;32.36;77735.50;5319523;28;20065;-76
2023/05/26 16:27:27;;;;;;;17.00;8.23;;;;;;;-145.79;33.88;77727.03;5304624;28;20060;-75
2023/05/26 16:29:58;;;;;;;9.75;3.65;;;;;;;-145.79;32.75;77741.88;5305101;28;20347;-74
2023/05/26 16:32:30;;;;;;;10.98;3.95;;;;;;;-145.79;32.47;77737.63;5323803;28;20051;-74
2023/05/26 16:35:01;;;;;;;10.77;4.03;;;;;;;-145.79;31.87;77758.81;5325644;28;20133;-75
2023/05/26 16:37:32;;;;;;;13.18;9.80;;;;;;;-145.79;32.00;77733.38;5324914;28;20031;-74
2023/05/26 16:40:04;;;;;;;9.85;4.32;;;;;;;-145.79;33.74;77733.38;5327661;28;20028;-76
2023/05/26 16:42:36;;;;;;;12.30;4.50;;;;;;;-145.79;32.49;77746.09;5319505;28;20031;-75
2023/05/26 16:45:07;;;;;;;10.23;5.72;;;;;;;-145.79;32.54;77729.16;5307554;28;20123;-76
2023/05/26 16:47:39;;;;;;;12.43;4.00;;;;;;;-145.79;32.69;77727.03;5320586;28;20443;-75
2023/05/26 16:50:11;;;;;;;12.02;4.25;;;;;;;-145.79;32.21;77724.91;5325153;28;20051;-76
2023/05/26 16:52:42;;;;;;;11.10;4.32;;;;;;;-145.79;31.99;77744.00;5305396;28;20028;-75
